sensor_id;sensor_type;location;lat;lon;timestamp;P1;durP1;ratioP1;P2;durP2;ratioP2
16015;SDS011;8112;53.592;10.184;2023-08-24T00:03:37;6.77;;;4.70;;
16015;SDS011;8112;53.592;10.184;2023-08-24T00:08:40;8.30;;;4.70;;
16015;SDS011;8112;53.592;10.184;2023-08-24T00:13:41;8.60;;;4.60;;
16015;SDS011;8112;53.592;10.184;2023-08-24T00:18:48;5.50;;;4.27;;
16015;SDS011;8112;53.592;10.184;2023-08-24T00:23:51;6.73;;;3.57;;
16015;SDS011;8112;53.592;10.184;2023-08-24T00:28:53;4.97;;;3.40;;
16015;SDS011;8112;53.592;10.184;2023-08-24T00:33:55;7.10;;;3.57;;
16015;SDS011;8112;53.592;10.184;2023-08-24T00:39:00;6.43;;;3.53;;
16015;SDS011;8112;53.592;10.184;2023-08-24T00:44:01;4.60;;;3.37;;
16015;SDS011;8112;53.592;10.184;2023-08-24T00:49:05;5.70;;;3.20;;
16015;SDS011;8112;53.592;10.184;2023-08-24T00:54:08;5.20;;;3.00;;
16015;SDS011;8112;53.592;10.184;2023-08-24T00:59:10;4.57;;;3.03;;
16015;SDS011;8112;53.592;10.184;2023-08-24T01:04:12;4.97;;;2.90;;
16015;SDS011;8112;53.592;10.184;2023-08-24T01:09:15;5.47;;;3.17;;
16015;SDS011;8112;53.592;10.184;2023-08-24T01:14:20;4.80;;;3.10;;
16015;SDS011;8112;53.592;10.184;2023-08-24T01:19:34;4.53;;;3.27;;
16015;SDS011;8112;53.592;10.184;2023-08-24T01:24:43;7.87;;;3.00;;
16015;SDS011;8112;53.592;10.184;2023-08-24T01:29:49;4.97;;;3.30;;
16015;SDS011;8112;53.592;10.184;2023-08-24T01:34:52;6.63;;;3.20;;
16015;SDS011;8112;53.592;10.184;2023-08-24T01:39:57;9.43;;;3.20;;
16015;SDS011;8112;53.592;10.184;2023-08-24T01:45:07;3.87;;;3.30;;
16015;SDS011;8112;53.592;10.184;2023-08-24T01:50:10;6.27;;;3.30;;
16015;SDS011;8112;53.592;10.184;2023-08-24T01:55:13;4.60;;;3.33;;
16015;SDS011;8112;53.592;10.184;2023-08-24T02:00:17;4.40;;;3.43;;
16015;SDS011;8112;53.592;10.184;2023-08-24T02:05:22;5.40;;;3.23;;
16015;SDS011;8112;53.592;10.184;2023-08-24T02:10:27;4.33;;;3.20;;
16015;SDS011;8112;53.592;10.184;2023-08-24T02:15:30;7.90;;;3.50;;
16015;SDS011;8112;53.592;10.184;2023-08-24T02:20:34;5.00;;;3.40;;
16015;SDS011;8112;53.592;10.184;2023-08-24T02:25:41;6.13;;;3.50;;
16015;SDS011;8112;53.592;10.184;2023-08-24T02:30:45;6.77;;;3.70;;
16015;SDS011;8112;53.592;10.184;2023-08-24T02:35:47;5.77;;;3.40;;
16015;SDS011;8112;53.592;10.184;2023-08-24T02:40:48;5.03;;;3.40;;
16015;SDS011;8112;53.592;10.184;2023-08-24T02:45:51;5.23;;;3.30;;
16015;SDS011;8112;53.592;10.184;2023-08-24T02:50:55;8.03;;;3.57;;
16015;SDS011;8112;53.592;10.184;2023-08-24T02:55:58;5.90;;;3.87;;
16015;SDS011;8112;53.592;10.184;2023-08-24T03:01:05;8.83;;;4.57;;
16015;SDS011;8112;53.592;10.184;2023-08-24T03:06:07;5.77;;;3.63;;
16015;SDS011;8112;53.592;10.184;2023-08-24T03:11:10;4.80;;;3.63;;
16015;SDS011;8112;53.592;10.184;2023-08-24T03:16:13;4.37;;;3.70;;
16015;SDS011;8112;53.592;10.184;2023-08-24T03:21:15;4.30;;;3.33;;
16015;SDS011;8112;53.592;10.184;2023-08-24T03:26:17;5.03;;;3.77;;
16015;SDS011;8112;53.592;10.184;2023-08-24T03:31:21;6.77;;;3.43;;
16015;SDS011;8112;53.592;10.184;2023-08-24T03:36:24;6.47;;;4.10;;
16015;SDS011;8112;53.592;10.184;2023-08-24T03:41:26;5.87;;;4.33;;
16015;SDS011;8112;53.592;10.184;2023-08-24T03:46:29;6.37;;;4.17;;
16015;SDS011;8112;53.592;10.184;2023-08-24T03:51:31;8.63;;;4.30;;
16015;SDS011;8112;53.592;10.184;2023-08-24T03:56:33;6.50;;;4.97;;
16015;SDS011;8112;53.592;10.184;2023-08-24T04:01:38;10.33;;;5.97;;
16015;SDS011;8112;53.592;10.184;2023-08-24T04:06:39;5.60;;;5.00;;
16015;SDS011;8112;53.592;10.184;2023-08-24T04:11:41;5.60;;;4.87;;
16015;SDS011;8112;53.592;10.184;2023-08-24T04:16:44;9.13;;;5.50;;
16015;SDS011;8112;53.592;10.184;2023-08-24T04:21:46;6.83;;;4.93;;
16015;SDS011;8112;53.592;10.184;2023-08-24T04:26:47;6.40;;;4.77;;
16015;SDS011;8112;53.592;10.184;2023-08-24T04:31:50;5.63;;;4.20;;
16015;SDS011;8112;53.592;10.184;2023-08-24T04:36:52;6.83;;;5.00;;
16015;SDS011;8112;53.592;10.184;2023-08-24T04:41:54;8.07;;;5.17;;
16015;SDS011;8112;53.592;10.184;2023-08-24T04:46:57;6.73;;;4.83;;
16015;SDS011;8112;53.592;10.184;2023-08-24T04:51:59;9.77;;;5.70;;
16015;SDS011;8112;53.592;10.184;2023-08-24T04:57:01;8.97;;;6.27;;
16015;SDS011;8112;53.592;10.184;2023-08-24T05:02:04;7.60;;;5.43;;
16015;SDS011;8112;53.592;10.184;2023-08-24T05:07:05;7.17;;;4.97;;
16015;SDS011;8112;53.592;10.184;2023-08-24T05:12:07;6.13;;;5.20;;
16015;SDS011;8112;53.592;10.184;2023-08-24T05:17:10;9.97;;;6.77;;
16015;SDS011;8112;53.592;10.184;2023-08-24T05:22:12;9.10;;;7.13;;
16015;SDS011;8112;53.592;10.184;2023-08-24T05:27:14;10.47;;;6.73;;
16015;SDS011;8112;53.592;10.184;2023-08-24T05:32:17;14.50;;;7.93;;
16015;SDS011;8112;53.592;10.184;2023-08-24T05:37:20;11.67;;;7.93;;
16015;SDS011;8112;53.592;10.184;2023-08-24T05:42:21;10.50;;;8.87;;
16015;SDS011;8112;53.592;10.184;2023-08-24T05:47:24;9.33;;;8.43;;
16015;SDS011;8112;53.592;10.184;2023-08-24T05:52:26;9.80;;;7.83;;
16015;SDS011;8112;53.592;10.184;2023-08-24T05:57:28;7.40;;;6.70;;
16015;SDS011;8112;53.592;10.184;2023-08-24T06:02:31;7.20;;;6.47;;
16015;SDS011;8112;53.592;10.184;2023-08-24T06:07:33;6.43;;;5.77;;
16015;SDS011;8112;53.592;10.184;2023-08-24T06:12:36;6.63;;;5.30;;
16015;SDS011;8112;53.592;10.184;2023-08-24T06:17:39;8.47;;;5.00;;
16015;SDS011;8112;53.592;10.184;2023-08-24T06:22:40;7.87;;;5.27;;
16015;SDS011;8112;53.592;10.184;2023-08-24T06:27:42;8.43;;;4.43;;
16015;SDS011;8112;53.592;10.184;2023-08-24T06:32:45;3.97;;;3.00;;
16015;SDS011;8112;53.592;10.184;2023-08-24T06:37:47;5.07;;;3.70;;
16015;SDS011;8112;53.592;10.184;2023-08-24T06:42:49;4.33;;;3.00;;
16015;SDS011;8112;53.592;10.184;2023-08-24T06:47:52;2.17;;;1.90;;
16015;SDS011;8112;53.592;10.184;2023-08-24T06:52:53;3.67;;;1.90;;
16015;SDS011;8112;53.592;10.184;2023-08-24T06:57:55;4.93;;;2.43;;
16015;SDS011;8112;53.592;10.184;2023-08-24T07:02:58;3.27;;;1.53;;
16015;SDS011;8112;53.592;10.184;2023-08-24T07:08:00;2.30;;;1.27;;
16015;SDS011;8112;53.592;10.184;2023-08-24T07:13:04;4.50;;;2.33;;
16015;SDS011;8112;53.592;10.184;2023-08-24T07:18:07;3.43;;;1.40;;
16015;SDS011;8112;53.592;10.184;2023-08-24T07:23:09;2.83;;;0.90;;
16015;SDS011;8112;53.592;10.184;2023-08-24T07:28:11;2.30;;;1.13;;
16015;SDS011;8112;53.592;10.184;2023-08-24T07:33:14;2.00;;;1.33;;
16015;SDS011;8112;53.592;10.184;2023-08-24T07:38:16;4.83;;;2.13;;
16015;SDS011;8112;53.592;10.184;2023-08-24T07:43:18;3.13;;;1.83;;
16015;SDS011;8112;53.592;10.184;2023-08-24T07:48:21;4.90;;;1.90;;
16015;SDS011;8112;53.592;10.184;2023-08-24T07:53:23;1.67;;;1.33;;
16015;SDS011;8112;53.592;10.184;2023-08-24T07:58:25;2.87;;;1.10;;
16015;SDS011;8112;53.592;10.184;2023-08-24T08:03:28;3.83;;;1.17;;
16015;SDS011;8112;53.592;10.184;2023-08-24T08:08:31;2.43;;;1.20;;
16015;SDS011;8112;53.592;10.184;2023-08-24T08:13:35;2.70;;;1.30;;
16015;SDS011;8112;53.592;10.184;2023-08-24T08:18:38;25.77;;;1.97;;
16015;SDS011;8112;53.592;10.184;2023-08-24T08:23:40;10.00;;;1.93;;
16015;SDS011;8112;53.592;10.184;2023-08-24T08:28:42;2.40;;;0.90;;
16015;SDS011;8112;53.592;10.184;2023-08-24T08:33:45;26.00;;;2.80;;
16015;SDS011;8112;53.592;10.184;2023-08-24T08:38:47;24.77;;;2.70;;
16015;SDS011;8112;53.592;10.184;2023-08-24T08:43:49;25.40;;;3.33;;
16015;SDS011;8112;53.592;10.184;2023-08-24T08:48:52;2.33;;;0.97;;
16015;SDS011;8112;53.592;10.184;2023-08-24T08:53:54;1.43;;;1.10;;
16015;SDS011;8112;53.592;10.184;2023-08-24T08:58:56;3.07;;;1.27;;
16015;SDS011;8112;53.592;10.184;2023-08-24T09:04:01;3.35;;;1.35;;
16015;SDS011;8112;53.592;10.184;2023-08-24T09:09:05;2.53;;;1.33;;
16015;SDS011;8112;53.592;10.184;2023-08-24T09:14:07;1.73;;;1.20;;
16015;SDS011;8112;53.592;10.184;2023-08-24T09:19:11;4.80;;;1.70;;
16015;SDS011;8112;53.592;10.184;2023-08-24T09:24:13;3.33;;;1.20;;
16015;SDS011;8112;53.592;10.184;2023-08-24T09:29:15;5.88;;;1.52;;
16015;SDS011;8112;53.592;10.184;2023-08-24T09:34:20;19.87;;;2.93;;
16015;SDS011;8112;53.592;10.184;2023-08-24T09:39:22;24.95;;;3.58;;
16015;SDS011;8112;53.592;10.184;2023-08-24T09:44:23;26.10;;;3.35;;
16015;SDS011;8112;53.592;10.184;2023-08-24T09:49:26;14.50;;;3.67;;
16015;SDS011;8112;53.592;10.184;2023-08-24T09:54:29;4.22;;;2.10;;
16015;SDS011;8112;53.592;10.184;2023-08-24T09:59:33;34.95;;;4.97;;
16015;SDS011;8112;53.592;10.184;2023-08-24T10:04:37;4.35;;;2.28;;
16015;SDS011;8112;53.592;10.184;2023-08-24T10:09:44;40.50;;;3.63;;
16015;SDS011;8112;53.592;10.184;2023-08-24T10:14:53;14.98;;;2.42;;
16015;SDS011;8112;53.592;10.184;2023-08-24T10:20:02;4.82;;;2.05;;
16015;SDS011;8112;53.592;10.184;2023-08-24T10:25:09;30.05;;;3.42;;
16015;SDS011;8112;53.592;10.184;2023-08-24T10:30:12;30.45;;;4.90;;
16015;SDS011;8112;53.592;10.184;2023-08-24T10:35:16;30.10;;;3.08;;
16015;SDS011;8112;53.592;10.184;2023-08-24T10:40:30;4.93;;;2.00;;
16015;SDS011;8112;53.592;10.184;2023-08-24T10:56:29;22.55;;;3.08;;
16015;SDS011;8112;53.592;10.184;2023-08-24T11:01:32;20.20;;;3.42;;
16015;SDS011;8112;53.592;10.184;2023-08-24T11:06:49;5.40;;;1.80;;
16015;SDS011;8112;53.592;10.184;2023-08-24T11:11:56;3.08;;;1.70;;
16015;SDS011;8112;53.592;10.184;2023-08-24T11:16:59;5.50;;;2.42;;
16015;SDS011;8112;53.592;10.184;2023-08-24T11:22:04;4.90;;;2.13;;
16015;SDS011;8112;53.592;10.184;2023-08-24T11:27:06;26.70;;;4.47;;
16015;SDS011;8112;53.592;10.184;2023-08-24T11:32:10;6.75;;;2.97;;
16015;SDS011;8112;53.592;10.184;2023-08-24T11:37:19;14.13;;;3.17;;
16015;SDS011;8112;53.592;10.184;2023-08-24T11:42:21;12.88;;;2.70;;
16015;SDS011;8112;53.592;10.184;2023-08-24T11:47:22;5.28;;;2.25;;
16015;SDS011;8112;53.592;10.184;2023-08-24T11:52:26;9.25;;;3.05;;
16015;SDS011;8112;53.592;10.184;2023-08-24T11:57:28;6.00;;;3.70;;
16015;SDS011;8112;53.592;10.184;2023-08-24T12:02:29;7.18;;;3.65;;
16015;SDS011;8112;53.592;10.184;2023-08-24T12:07:33;3.88;;;2.38;;
16015;SDS011;8112;53.592;10.184;2023-08-24T12:12:35;12.77;;;3.08;;
16015;SDS011;8112;53.592;10.184;2023-08-24T12:17:41;2.85;;;1.92;;
16015;SDS011;8112;53.592;10.184;2023-08-24T12:22:45;2.85;;;2.22;;
16015;SDS011;8112;53.592;10.184;2023-08-24T12:27:51;5.25;;;2.03;;
16015;SDS011;8112;53.592;10.184;2023-08-24T12:32:53;14.38;;;3.78;;
16015;SDS011;8112;53.592;10.184;2023-08-24T12:37:58;5.03;;;3.13;;
16015;SDS011;8112;53.592;10.184;2023-08-24T12:43:00;6.18;;;2.97;;
16015;SDS011;8112;53.592;10.184;2023-08-24T12:48:01;27.98;;;3.38;;
16015;SDS011;8112;53.592;10.184;2023-08-24T12:53:05;4.40;;;3.60;;
16015;SDS011;8112;53.592;10.184;2023-08-24T12:58:07;3.97;;;1.85;;
16015;SDS011;8112;53.592;10.184;2023-08-24T13:03:09;5.35;;;2.00;;
16015;SDS011;8112;53.592;10.184;2023-08-24T13:08:12;27.45;;;4.60;;
16015;SDS011;8112;53.592;10.184;2023-08-24T13:13:14;23.02;;;2.42;;
16015;SDS011;8112;53.592;10.184;2023-08-24T13:18:16;34.17;;;5.05;;
16015;SDS011;8112;53.592;10.184;2023-08-24T13:23:19;16.60;;;3.08;;
16015;SDS011;8112;53.592;10.184;2023-08-24T13:28:21;21.80;;;3.03;;
16015;SDS011;8112;53.592;10.184;2023-08-24T13:33:22;4.00;;;2.65;;
16015;SDS011;8112;53.592;10.184;2023-08-24T13:38:25;24.40;;;5.00;;
16015;SDS011;8112;53.592;10.184;2023-08-24T13:43:27;21.48;;;4.10;;
16015;SDS011;8112;53.592;10.184;2023-08-24T13:48:29;35.83;;;5.22;;
16015;SDS011;8112;53.592;10.184;2023-08-24T13:53:35;34.05;;;6.97;;
16015;SDS011;8112;53.592;10.184;2023-08-24T13:58:37;4.55;;;2.10;;
16015;SDS011;8112;53.592;10.184;2023-08-24T14:03:38;20.10;;;3.65;;
16015;SDS011;8112;53.592;10.184;2023-08-24T14:08:44;5.57;;;1.98;;
16015;SDS011;8112;53.592;10.184;2023-08-24T14:13:46;22.85;;;3.65;;
16015;SDS011;8112;53.592;10.184;2023-08-24T14:18:48;2.05;;;1.85;;
16015;SDS011;8112;53.592;10.184;2023-08-24T14:23:51;5.80;;;2.25;;
16015;SDS011;8112;53.592;10.184;2023-08-24T14:28:53;21.77;;;4.35;;
16015;SDS011;8112;53.592;10.184;2023-08-24T14:33:57;19.92;;;3.03;;
16015;SDS011;8112;53.592;10.184;2023-08-24T14:39:00;27.40;;;5.63;;
16015;SDS011;8112;53.592;10.184;2023-08-24T14:44:02;21.85;;;3.80;;
16015;SDS011;8112;53.592;10.184;2023-08-24T14:49:04;24.20;;;4.65;;
16015;SDS011;8112;53.592;10.184;2023-08-24T14:54:07;16.88;;;3.08;;
16015;SDS011;8112;53.592;10.184;2023-08-24T14:59:11;11.95;;;3.00;;
16015;SDS011;8112;53.592;10.184;2023-08-24T15:04:12;3.95;;;1.83;;
16015;SDS011;8112;53.592;10.184;2023-08-24T15:09:15;7.88;;;2.85;;
16015;SDS011;8112;53.592;10.184;2023-08-24T15:14:17;10.18;;;3.05;;
16015;SDS011;8112;53.592;10.184;2023-08-24T15:19:19;15.32;;;5.03;;
16015;SDS011;8112;53.592;10.184;2023-08-24T15:24:22;3.10;;;2.05;;
16015;SDS011;8112;53.592;10.184;2023-08-24T15:29:23;11.25;;;2.95;;
16015;SDS011;8112;53.592;10.184;2023-08-24T15:34:25;4.43;;;1.80;;
16015;SDS011;8112;53.592;10.184;2023-08-24T15:39:28;3.75;;;1.98;;
16015;SDS011;8112;53.592;10.184;2023-08-24T15:44:30;6.88;;;3.75;;
16015;SDS011;8112;53.592;10.184;2023-08-24T15:49:32;7.53;;;1.73;;
16015;SDS011;8112;53.592;10.184;2023-08-24T15:54:36;11.55;;;3.55;;
16015;SDS011;8112;53.592;10.184;2023-08-24T15:59:37;7.30;;;2.83;;
16015;SDS011;8112;53.592;10.184;2023-08-24T16:04:39;3.05;;;2.00;;
16015;SDS011;8112;53.592;10.184;2023-08-24T16:09:42;33.80;;;4.45;;
16015;SDS011;8112;53.592;10.184;2023-08-24T16:14:44;33.42;;;4.45;;
16015;SDS011;8112;53.592;10.184;2023-08-24T16:19:46;6.97;;;2.47;;
16015;SDS011;8112;53.592;10.184;2023-08-24T16:24:49;6.63;;;3.05;;
16015;SDS011;8112;53.592;10.184;2023-08-24T16:29:51;4.47;;;2.28;;
16015;SDS011;8112;53.592;10.184;2023-08-24T16:34:52;6.28;;;2.33;;
16015;SDS011;8112;53.592;10.184;2023-08-24T16:39:55;6.10;;;4.10;;
16015;SDS011;8112;53.592;10.184;2023-08-24T16:44:57;2.83;;;2.47;;
16015;SDS011;8112;53.592;10.184;2023-08-24T16:49:59;4.78;;;2.90;;
16015;SDS011;8112;53.592;10.184;2023-08-24T16:55:02;7.50;;;2.40;;
16015;SDS011;8112;53.592;10.184;2023-08-24T17:00:05;17.27;;;4.00;;
16015;SDS011;8112;53.592;10.184;2023-08-24T17:05:08;13.15;;;4.30;;
16015;SDS011;8112;53.592;10.184;2023-08-24T17:10:11;2.60;;;2.20;;
16015;SDS011;8112;53.592;10.184;2023-08-24T17:15:13;8.63;;;4.00;;
16015;SDS011;8112;53.592;10.184;2023-08-24T17:20:15;4.38;;;2.20;;
16015;SDS011;8112;53.592;10.184;2023-08-24T17:25:18;3.42;;;2.33;;
16015;SDS011;8112;53.592;10.184;2023-08-24T17:30:20;7.00;;;2.67;;
16015;SDS011;8112;53.592;10.184;2023-08-24T17:35:22;3.00;;;2.13;;
16015;SDS011;8112;53.592;10.184;2023-08-24T17:40:25;3.83;;;2.23;;
16015;SDS011;8112;53.592;10.184;2023-08-24T17:45:26;4.70;;;2.13;;
16015;SDS011;8112;53.592;10.184;2023-08-24T17:50:28;5.07;;;2.73;;
16015;SDS011;8112;53.592;10.184;2023-08-24T17:55:31;3.20;;;2.23;;
16015;SDS011;8112;53.592;10.184;2023-08-24T18:00:33;2.97;;;2.43;;
16015;SDS011;8112;53.592;10.184;2023-08-24T18:05:37;4.40;;;2.17;;
16015;SDS011;8112;53.592;10.184;2023-08-24T18:10:40;5.63;;;3.37;;
16015;SDS011;8112;53.592;10.184;2023-08-24T18:15:41;7.60;;;2.97;;
16015;SDS011;8112;53.592;10.184;2023-08-24T18:20:44;4.53;;;2.47;;
16015;SDS011;8112;53.592;10.184;2023-08-24T18:25:47;6.07;;;2.73;;
16015;SDS011;8112;53.592;10.184;2023-08-24T18:30:49;4.93;;;2.27;;
16015;SDS011;8112;53.592;10.184;2023-08-24T18:35:51;7.10;;;2.73;;
16015;SDS011;8112;53.592;10.184;2023-08-24T18:40:54;8.80;;;2.53;;
16015;SDS011;8112;53.592;10.184;2023-08-24T18:45:56;10.00;;;2.57;;
16015;SDS011;8112;53.592;10.184;2023-08-24T18:50:59;8.73;;;2.40;;
16015;SDS011;8112;53.592;10.184;2023-08-24T18:56:02;4.97;;;2.40;;
16015;SDS011;8112;53.592;10.184;2023-08-24T19:01:04;4.77;;;2.50;;
16015;SDS011;8112;53.592;10.184;2023-08-24T19:06:05;4.23;;;2.50;;
16015;SDS011;8112;53.592;10.184;2023-08-24T19:11:10;8.37;;;2.90;;
16015;SDS011;8112;53.592;10.184;2023-08-24T19:16:12;3.03;;;2.07;;
16015;SDS011;8112;53.592;10.184;2023-08-24T19:21:14;3.37;;;2.30;;
16015;SDS011;8112;53.592;10.184;2023-08-24T19:26:17;5.37;;;2.70;;
16015;SDS011;8112;53.592;10.184;2023-08-24T19:31:19;7.43;;;2.60;;
16015;SDS011;8112;53.592;10.184;2023-08-24T19:36:20;5.30;;;2.90;;
16015;SDS011;8112;53.592;10.184;2023-08-24T19:41:23;6.10;;;2.67;;
16015;SDS011;8112;53.592;10.184;2023-08-24T19:46:26;5.77;;;2.70;;
16015;SDS011;8112;53.592;10.184;2023-08-24T19:51:28;3.87;;;2.53;;
16015;SDS011;8112;53.592;10.184;2023-08-24T19:56:31;4.90;;;2.30;;
16015;SDS011;8112;53.592;10.184;2023-08-24T20:01:33;4.13;;;2.30;;
16015;SDS011;8112;53.592;10.184;2023-08-24T20:06:35;8.57;;;2.50;;
16015;SDS011;8112;53.592;10.184;2023-08-24T20:11:38;6.10;;;2.43;;
16015;SDS011;8112;53.592;10.184;2023-08-24T20:16:40;2.47;;;2.27;;
16015;SDS011;8112;53.592;10.184;2023-08-24T20:21:41;5.97;;;2.30;;
16015;SDS011;8112;53.592;10.184;2023-08-24T20:26:45;4.20;;;2.20;;
16015;SDS011;8112;53.592;10.184;2023-08-24T20:31:46;5.73;;;2.30;;
16015;SDS011;8112;53.592;10.184;2023-08-24T20:36:48;3.93;;;2.30;;
16015;SDS011;8112;53.592;10.184;2023-08-24T20:41:53;3.37;;;1.87;;
16015;SDS011;8112;53.592;10.184;2023-08-24T20:47:13;3.27;;;2.23;;
16015;SDS011;8112;53.592;10.184;2023-08-24T20:52:15;5.40;;;1.97;;
16015;SDS011;8112;53.592;10.184;2023-08-24T20:57:18;5.33;;;2.17;;
16015;SDS011;8112;53.592;10.184;2023-08-24T21:02:20;4.03;;;2.00;;
16015;SDS011;8112;53.592;10.184;2023-08-24T21:07:23;3.90;;;2.00;;
16015;SDS011;8112;53.592;10.184;2023-08-24T21:12:26;4.80;;;2.20;;
16015;SDS011;8112;53.592;10.184;2023-08-24T21:17:28;7.80;;;2.23;;
16015;SDS011;8112;53.592;10.184;2023-08-24T21:22:32;2.53;;;2.23;;
16015;SDS011;8112;53.592;10.184;2023-08-24T21:27:35;4.73;;;2.60;;
16015;SDS011;8112;53.592;10.184;2023-08-24T21:32:37;2.93;;;2.40;;
16015;SDS011;8112;53.592;10.184;2023-08-24T21:37:39;5.97;;;2.43;;
16015;SDS011;8112;53.592;10.184;2023-08-24T21:42:42;6.20;;;2.67;;
16015;SDS011;8112;53.592;10.184;2023-08-24T21:47:43;5.07;;;3.00;;
16015;SDS011;8112;53.592;10.184;2023-08-24T21:52:45;3.57;;;2.70;;
16015;SDS011;8112;53.592;10.184;2023-08-24T21:57:48;7.40;;;3.40;;
16015;SDS011;8112;53.592;10.184;2023-08-24T22:02:51;4.67;;;2.93;;
16015;SDS011;8112;53.592;10.184;2023-08-24T22:07:53;4.17;;;2.90;;
16015;SDS011;8112;53.592;10.184;2023-08-24T22:12:59;6.07;;;3.00;;
16015;SDS011;8112;53.592;10.184;2023-08-24T22:18:01;3.30;;;3.00;;
16015;SDS011;8112;53.592;10.184;2023-08-24T22:23:03;4.53;;;3.20;;
16015;SDS011;8112;53.592;10.184;2023-08-24T22:28:06;6.03;;;3.47;;
16015;SDS011;8112;53.592;10.184;2023-08-24T22:33:08;5.13;;;3.80;;
16015;SDS011;8112;53.592;10.184;2023-08-24T22:38:10;7.00;;;4.10;;
16015;SDS011;8112;53.592;10.184;2023-08-24T22:43:13;5.27;;;4.77;;
16015;SDS011;8112;53.592;10.184;2023-08-24T22:48:14;6.47;;;4.80;;
16015;SDS011;8112;53.592;10.184;2023-08-24T22:53:16;8.93;;;4.07;;
16015;SDS011;8112;53.592;10.184;2023-08-24T22:58:19;4.50;;;4.00;;
16015;SDS011;8112;53.592;10.184;2023-08-24T23:03:29;6.60;;;3.90;;
16015;SDS011;8112;53.592;10.184;2023-08-24T23:08:33;5.33;;;4.83;;
16015;SDS011;8112;53.592;10.184;2023-08-24T23:13:36;6.40;;;4.30;;
16015;SDS011;8112;53.592;10.184;2023-08-24T23:18:38;4.93;;;4.37;;
16015;SDS011;8112;53.592;10.184;2023-08-24T23:23:40;5.13;;;4.53;;
16015;SDS011;8112;53.592;10.184;2023-08-24T23:28:43;5.10;;;4.70;;
16015;SDS011;8112;53.592;10.184;2023-08-24T23:33:44;6.67;;;5.10;;
16015;SDS011;8112;53.592;10.184;2023-08-24T23:38:46;6.40;;;5.53;;
16015;SDS011;8112;53.592;10.184;2023-08-24T23:43:49;6.23;;;5.63;;
16015;SDS011;8112;53.592;10.184;2023-08-24T23:48:51;6.50;;;5.90;;
16015;SDS011;8112;53.592;10.184;2023-08-24T23:53:52;5.73;;;5.23;;
16015;SDS011;8112;53.592;10.184;2023-08-24T23:58:56;6.80;;;6.20;;
